CPX337 Details

Departure: Fort Worth Alliance Airport (KAFW)
Arrival: Miami International Airport (KMIA)
Route: KUSSO5 ZALEA SWB HRV Q105 BLVNS Y290 BAGGS SSCOT5


Current Weather Information
KAFW 181553Z 07005KT 10SM FEW250 16/02 A3035 RMK AO2 SLP276 T01560022
KMIA 181553Z 29005KT 10SM FEW017 23/20 A3007 RMK AO2 SLP181 T02330200